Time,TemperatureF,DewpointF,PressureIn,WindDirection,WindDirectionDegrees,WindSpeedMPH,WindSpeedGustMPH,Humidity,HourlyPrecipIn,Conditions,Clouds,dailyrainin,SoftwareType,DateUTC
2013-07-05 00:05:00,55.9,55.1,30.02,SE,145,0.0,0.0,97,0.00,,,0.00,Wunderground v.1.15,2013-07-05 07:05:00,
2013-07-05 00:35:00,55.1,54.5,30.01,SE,145,0.0,0.0,98,0.00,,,0.00,Wunderground v.1.15,2013-07-05 07:35:00,
2013-07-05 01:05:00,54.4,54.1,30.01,SE,145,0.0,0.0,99,0.00,,,0.00,Wunderground v.1.15,2013-07-05 08:05:00,
2013-07-05 01:35:00,53.8,53.8,30.02,SE,145,0.0,0.0,100,0.00,,,0.00,Wunderground v.1.15,2013-07-05 08:35:00,
2013-07-05 02:05:00,52.9,52.9,30.01,SE,145,0.0,0.0,100,0.00,,,0.00,Wunderground v.1.15,2013-07-05 09:05:00,
2013-07-05 02:35:00,52.2,52.2,30.01,SE,145,0.0,0.0,100,0.00,,,0.00,Wunderground v.1.15,2013-07-05 09:35:00,
2013-07-05 03:05:00,51.4,51.4,30.01,SE,145,0.0,0.0,100,0.00,,,0.00,Wunderground v.1.15,2013-07-05 10:05:00,
2013-07-05 03:35:00,50.8,50.8,30.01,SE,145,0.0,0.0,100,0.00,,,0.00,Wunderground v.1.15,2013-07-05 10:35:00,
2013-07-05 04:35:00,50.1,50.1,30.00,SE,145,0.0,0.0,100,0.00,,,0.00,Wunderground v.1.15,2013-07-05 11:35:00,
2013-07-05 05:05:00,49.6,49.6,30.00,SE,145,0.0,0.0,100,0.00,,,0.00,Wunderground v.1.15,2013-07-05 12:05:00,
2013-07-05 05:35:00,49.4,49.4,30.01,SE,145,0.0,0.0,100,0.00,,,0.00,Wunderground v.1.15,2013-07-05 12:35:00,
2013-07-05 06:05:00,49.1,49.1,30.01,SE,145,0.0,0.0,100,0.00,,,0.00,Wunderground v.1.15,2013-07-05 13:05:00,
2013-07-05 06:35:00,50.1,50.1,30.01,SE,145,0.0,0.0,100,0.00,,,0.00,Wunderground v.1.15,2013-07-05 13:35:00,
2013-07-05 07:05:00,54.8,54.8,30.01,SE,145,0.0,0.0,100,0.00,,,0.00,Wunderground v.1.15,2013-07-05 14:05:00,
2013-07-05 07:35:00,59.2,59.2,30.01,SE,145,0.0,0.0,100,0.00,,,0.00,Wunderground v.1.15,2013-07-05 14:35:00,
2013-07-05 08:05:00,63.2,63.2,30.01,SE,145,0.0,0.0,100,0.00,,,0.00,Wunderground v.1.15,2013-07-05 15:05:00,
2013-07-05 08:35:00,67.3,61.6,30.01,SE,145,0.0,0.0,82,0.00,,,0.00,Wunderground v.1.15,2013-07-05 15:35:00,
2013-07-05 09:05:00,69.6,57.3,30.00,ESE,110,0.0,0.0,65,0.00,,,0.00,Wunderground v.1.15,2013-07-05 16:05:00,
2013-07-05 09:35:00,69.6,56.9,30.00,East,93,0.0,0.0,64,0.00,,,0.00,Wunderground v.1.15,2013-07-05 16:35:00,
2013-07-05 10:05:00,66.4,57.9,30.00,East,99,0.0,0.0,74,0.00,,,0.00,Wunderground v.1.15,2013-07-05 17:05:00,
2013-07-05 10:35:00,66.4,58.2,29.99,ESE,114,0.0,0.0,75,0.00,,,0.00,Wunderground v.1.15,2013-07-05 17:35:00,
2013-07-05 11:05:00,69.1,60.1,29.99,ESE,121,0.0,0.0,73,0.00,,,0.00,Wunderground v.1.15,2013-07-05 18:05:00,
2013-07-05 11:35:00,69.9,60.1,29.99,ESE,123,0.0,0.0,71,0.00,,,0.00,Wunderground v.1.15,2013-07-05 18:35:00,
2013-07-05 12:05:00,70.8,60.1,29.98,NW,323,0.0,0.0,69,0.00,,,0.00,Wunderground v.1.15,2013-07-05 19:05:00,
2013-07-05 12:35:00,70.6,59.9,29.97,South,179,0.0,0.0,69,0.00,,,0.00,Wunderground v.1.15,2013-07-05 19:35:00,
2013-07-05 13:05:00,70.9,60.2,29.97,SE,144,0.0,0.0,69,0.00,,,0.00,Wunderground v.1.15,2013-07-05 20:05:00,
2013-07-05 13:35:00,70.9,59.4,29.97,SW,232,0.0,0.0,67,0.00,,,0.00,Wunderground v.1.15,2013-07-05 20:35:00,
2013-07-05 14:05:00,71.5,60.4,29.96,SSW,193,0.0,1.0,68,0.00,,,0.00,Wunderground v.1.15,2013-07-05 21:05:00,
2013-07-05 14:35:00,72.0,59.6,29.96,South,175,0.0,0.0,65,0.00,,,0.00,Wunderground v.1.15,2013-07-05 21:35:00,
2013-07-05 15:05:00,71.6,60.5,29.95,SSE,152,0.0,0.0,68,0.00,,,0.00,Wunderground v.1.15,2013-07-05 22:05:00,
2013-07-05 15:35:00,71.8,60.7,29.94,WNW,296,0.0,0.0,68,0.00,,,0.00,Wunderground v.1.15,2013-07-05 22:35:00,
2013-07-05 16:05:00,70.6,59.1,29.94,WNW,288,3.0,3.0,67,0.00,,,0.00,Wunderground v.1.15,2013-07-05 23:05:00,
2013-07-05 16:35:00,70.6,59.1,29.93,SE,140,0.0,0.0,67,0.00,,,0.00,Wunderground v.1.15,2013-07-05 23:35:00,
2013-07-05 17:05:00,68.4,57.0,29.93,SSE,165,0.0,0.0,67,0.00,,,0.00,Wunderground v.1.15,2013-07-06 00:05:00,
2013-07-05 17:35:00,67.1,55.8,29.92,West,274,0.0,0.0,67,0.00,,,0.00,Wunderground v.1.15,2013-07-06 00:35:00,
2013-07-05 18:05:00,66.8,55.5,29.91,WSW,257,0.0,0.0,67,0.00,,,0.00,Wunderground v.1.15,2013-07-06 01:05:00,
2013-07-05 18:35:00,65.6,56.7,29.91,SSE,164,0.0,0.0,73,0.00,,,0.00,Wunderground v.1.15,2013-07-06 01:35:00,
2013-07-05 19:05:00,64.5,55.7,29.91,SSE,147,2.0,2.0,73,0.00,,,0.00,Wunderground v.1.15,2013-07-06 02:05:00,
2013-07-05 19:35:00,62.9,54.1,29.91,SE,144,1.0,1.0,73,0.00,,,0.00,Wunderground v.1.15,2013-07-06 02:35:00,
2013-07-05 20:05:00,-999.9,-99.9,29.92,North,32767,-999.0,0.0,255,-99.99,,,0.00,Wunderground v.1.15,2013-07-06 03:05:00,
2013-07-05 20:35:00,-999.9,-99.9,29.92,North,32767,-999.0,0.0,255,-99.99,,,0.00,Wunderground v.1.15,2013-07-06 03:35:00,
2013-07-05 21:05:00,-999.9,-99.9,29.92,South,188,0.0,0.0,255,0.00,,,0.00,Wunderground v.1.15,2013-07-06 04:05:00,
2013-07-05 21:35:00,58.6,56.9,29.93,South,179,0.0,0.0,94,0.00,,,0.00,Wunderground v.1.15,2013-07-06 04:35:00,
2013-07-05 22:05:00,58.0,56.6,29.94,South,174,0.0,0.0,95,0.00,,,0.00,Wunderground v.1.15,2013-07-06 05:05:00,
2013-07-05 22:35:00,57.5,56.4,29.94,ESE,104,0.0,0.0,96,0.00,,,0.00,Wunderground v.1.15,2013-07-06 05:35:00,
2013-07-05 23:05:00,56.9,56.1,29.94,SSE,150,0.0,0.0,97,0.00,,,0.00,Wunderground v.1.15,2013-07-06 06:05:00,
2013-07-05 23:35:00,56.3,55.7,29.93,SSE,150,0.0,0.0,98,0.00,,,0.00,Wunderground v.1.15,2013-07-06 06:35:00,